createdAt,value
2019-03-24T00:01:17.226Z,101066.44
2019-03-24T00:03:47.674Z,101073.94
2019-03-24T00:06:18.093Z,101075.42
2019-03-24T00:08:48.540Z,101069.63
2019-03-24T00:11:18.956Z,101070.98
2019-03-24T00:13:49.408Z,101067.31
2019-03-24T00:16:19.827Z,101062.02
2019-03-24T00:18:50.261Z,101066.14
2019-03-24T00:21:20.687Z,101065.22
2019-03-24T00:23:51.132Z,101074.17
2019-03-24T00:26:23.469Z,101077.69
2019-03-24T00:28:53.698Z,101077.13
2019-03-24T00:31:24.098Z,101084.52
2019-03-24T00:33:54.547Z,101085.42
2019-03-24T00:36:24.965Z,101085.15
2019-03-24T00:38:55.391Z,101082.67
2019-03-24T00:41:25.809Z,101081.30
2019-03-24T00:43:57.202Z,101080.39
2019-03-24T00:46:27.607Z,101075.65
2019-03-24T00:48:58.059Z,101074.08
2019-03-24T00:51:28.461Z,101069.59
2019-03-24T00:53:58.904Z,101073.75
2019-03-24T00:56:29.300Z,101072.72
2019-03-24T00:58:59.775Z,101074.81
2019-03-24T01:01:30.177Z,101071.63
2019-03-24T01:04:00.626Z,101070.20
2019-03-24T01:06:31.017Z,101058.27
2019-03-24T01:09:01.402Z,101055.47
2019-03-24T01:11:31.740Z,101047.54
2019-03-24T01:14:02.179Z,101052.91
2019-03-24T01:16:32.587Z,101054.64
2019-03-24T01:19:02.941Z,101061.86
2019-03-24T01:21:33.326Z,101060.92
2019-03-24T01:24:03.888Z,101060.81
2019-03-24T01:26:34.267Z,101065.20
2019-03-24T01:29:04.695Z,101071.28
2019-03-24T01:31:35.066Z,101068.83
2019-03-24T01:34:05.587Z,101077.02
2019-03-24T01:36:35.989Z,101081.04
2019-03-24T01:39:07.744Z,101078.69
2019-03-24T01:41:38.159Z,101076.14
2019-03-24T01:44:09.675Z,101066.17
2019-03-24T01:46:40.068Z,101079.16
2019-03-24T01:49:10.484Z,101078.03
2019-03-24T01:51:40.866Z,101083.72
2019-03-24T01:54:11.310Z,101079.05
2019-03-24T01:56:41.708Z,101078.10
2019-03-24T01:59:12.174Z,101079.98
2019-03-24T02:01:42.490Z,101074.77
2019-03-24T02:04:12.885Z,101073.28
2019-03-24T02:06:43.285Z,101068.92
2019-03-24T02:09:13.778Z,101072.41
2019-03-24T02:11:44.193Z,101072.41
2019-03-24T02:14:14.649Z,101083.72
2019-03-24T02:16:45.050Z,101075.53
2019-03-24T02:19:15.524Z,101070.08
2019-03-24T02:21:45.930Z,101066.01
2019-03-24T02:24:16.398Z,101073.08
2019-03-24T02:26:46.791Z,101074.40
2019-03-24T02:29:17.248Z,101079.87
2019-03-24T02:31:47.660Z,101085.09
2019-03-24T02:34:18.090Z,101074.77
2019-03-24T02:36:48.492Z,101080.13
2019-03-24T02:39:18.910Z,101072.22
2019-03-24T02:41:49.296Z,101075.30
2019-03-24T02:44:22.375Z,101071.37
2019-03-24T02:46:52.777Z,101078.05
2019-03-24T02:49:23.216Z,101077.30
2019-03-24T02:51:53.626Z,101076.75
2019-03-24T02:54:24.090Z,101078.05
2019-03-24T02:56:54.485Z,101077.98
2019-03-24T02:59:24.930Z,101079.89
2019-03-24T03:01:55.337Z,101077.40
2019-03-24T03:04:25.785Z,101070.30
2019-03-24T03:06:56.170Z,101072.98
2019-03-24T03:09:26.628Z,101068.17
2019-03-24T03:11:57.033Z,101069.72
2019-03-24T03:14:27.486Z,101073.75
2019-03-24T03:16:57.895Z,101075.45
2019-03-24T03:19:28.339Z,101068.59
2019-03-24T03:21:58.804Z,101073.35
2019-03-24T03:24:29.278Z,101070.49
2019-03-24T03:26:59.675Z,101075.78
2019-03-24T03:29:30.125Z,101077.08
2019-03-24T03:32:00.552Z,101076.98
2019-03-24T03:34:30.982Z,101073.28
2019-03-24T03:37:01.411Z,101068.52
2019-03-24T03:39:31.826Z,101068.05
2019-03-24T03:42:02.238Z,101068.00
2019-03-24T03:44:33.665Z,101069.72
2019-03-24T03:47:04.064Z,101074.40
2019-03-24T03:49:34.440Z,101081.00
2019-03-24T03:52:04.864Z,101074.33
2019-03-24T03:54:35.296Z,101078.03
2019-03-24T03:57:05.709Z,101074.55
2019-03-24T03:59:36.161Z,101064.69
2019-03-24T04:02:06.558Z,101063.02
2019-03-24T04:04:36.994Z,101063.11
2019-03-24T04:07:07.409Z,101067.30
2019-03-24T04:09:37.875Z,101057.50
2019-03-24T04:12:08.272Z,101063.59
2019-03-24T04:14:39.220Z,101064.20
2019-03-24T04:17:09.635Z,101060.85
2019-03-24T04:19:40.090Z,101062.98
2019-03-24T04:22:10.514Z,101061.91
2019-03-24T04:24:40.979Z,101069.22
2019-03-24T04:27:11.385Z,101072.89
2019-03-24T04:29:41.883Z,101066.20
2019-03-24T04:32:12.278Z,101075.30
2019-03-24T04:34:42.721Z,101077.03
2019-03-24T04:37:13.100Z,101081.72
2019-03-24T04:39:43.580Z,101072.55
2019-03-24T04:42:13.981Z,101072.61
2019-03-24T04:44:45.429Z,101070.95
2019-03-24T04:47:16.891Z,101065.58
2019-03-24T04:49:47.610Z,101061.88
2019-03-24T04:52:18.021Z,101062.16
2019-03-24T04:54:48.477Z,101059.27
2019-03-24T04:57:18.872Z,101059.85
2019-03-24T04:59:49.331Z,101053.97
2019-03-24T05:02:19.719Z,101067.59
2019-03-24T05:04:50.162Z,101068.95
2019-03-24T05:07:21.165Z,101060.39
2019-03-24T05:09:51.606Z,101046.64
2019-03-24T05:12:22.009Z,101054.20
2019-03-24T05:14:52.439Z,101044.72
2019-03-24T05:17:26.924Z,101048.69
2019-03-24T05:19:54.988Z,101056.99
2019-03-24T05:22:25.407Z,101051.19
2019-03-24T05:24:55.850Z,101056.94
2019-03-24T05:27:26.201Z,101071.98
2019-03-24T05:29:56.679Z,101074.94
2019-03-24T05:32:27.072Z,101075.72
2019-03-24T05:34:57.530Z,101060.20
2019-03-24T05:37:27.918Z,101060.61
2019-03-24T05:39:58.371Z,101056.78
2019-03-24T05:42:28.709Z,101056.52
2019-03-24T05:44:59.295Z,101055.94
2019-03-24T05:47:36.816Z,101056.69
2019-03-24T05:50:01.724Z,101070.93
2019-03-24T05:52:32.118Z,101070.70
2019-03-24T05:55:02.474Z,101065.13
2019-03-24T05:57:32.886Z,101069.38
2019-03-24T06:00:04.717Z,101070.08
2019-03-24T06:02:35.028Z,101072.29
2019-03-24T06:05:06.167Z,101063.30
2019-03-24T06:07:36.567Z,101066.92
2019-03-24T06:10:07.706Z,101081.92
2019-03-24T06:12:38.095Z,101079.32
2019-03-24T06:15:11.571Z,101071.27
2019-03-24T06:17:47.813Z,101084.31
2019-03-24T06:20:14.044Z,101076.92
2019-03-24T06:22:44.394Z,101077.45
2019-03-24T06:25:14.850Z,101072.56
2019-03-24T06:27:45.261Z,101069.53
2019-03-24T06:30:15.850Z,101068.36
2019-03-24T06:32:46.273Z,101057.08
2019-03-24T06:35:16.742Z,101055.16
2019-03-24T06:37:47.168Z,101052.31
2019-03-24T06:40:19.838Z,101055.58
2019-03-24T06:42:50.445Z,101061.33
2019-03-24T06:45:28.366Z,101063.64
2019-03-24T06:47:57.859Z,101064.99
2019-03-24T06:50:25.930Z,101063.28
2019-03-24T06:52:56.236Z,101050.89
2019-03-24T06:55:26.613Z,101055.30
2019-03-24T06:57:57.022Z,101057.33
2019-03-24T07:00:27.532Z,101058.52
2019-03-24T07:02:57.847Z,101060.05
2019-03-24T07:05:28.176Z,101072.96
2019-03-24T07:07:58.463Z,101072.19
2019-03-24T07:10:28.782Z,101068.08
2019-03-24T07:12:59.092Z,101061.97
2019-03-24T07:15:29.445Z,101056.16
2019-03-24T07:18:08.069Z,101063.27
2019-03-24T07:20:31.947Z,101067.86
2019-03-24T07:23:02.354Z,101055.08
2019-03-24T07:25:32.707Z,101052.56
2019-03-24T07:28:03.017Z,101055.98
2019-03-24T07:30:33.423Z,101057.77
2019-03-24T07:33:03.828Z,101045.70
2019-03-24T07:35:34.165Z,101042.66
2019-03-24T07:38:04.592Z,101043.78
2019-03-24T07:40:34.913Z,101029.72
2019-03-24T07:43:05.233Z,101025.39
2019-03-24T07:45:36.701Z,101017.34
2019-03-24T07:48:06.966Z,101012.06
2019-03-24T07:50:37.415Z,101025.69
2019-03-24T07:53:07.827Z,101031.07
2019-03-24T07:55:38.160Z,101024.90
2019-03-24T07:58:08.466Z,101020.23
2019-03-24T08:00:39.234Z,101008.64
2019-03-24T08:03:09.536Z,100997.14
2019-03-24T08:05:39.885Z,101001.16
2019-03-24T08:08:10.182Z,100997.82
2019-03-24T08:10:40.557Z,100993.83
2019-03-24T08:13:10.879Z,100992.64
2019-03-24T08:15:41.305Z,100978.77
2019-03-24T08:18:11.673Z,100979.16
2019-03-24T08:20:42.039Z,100971.59
2019-03-24T08:23:12.328Z,100961.17
2019-03-24T08:25:42.742Z,100956.91
2019-03-24T08:28:13.044Z,100966.03
2019-03-24T08:30:43.328Z,100970.30
2019-03-24T08:33:13.683Z,100966.12
2019-03-24T08:35:44.160Z,100961.18
2019-03-24T08:38:14.533Z,100963.59
2019-03-24T08:40:44.992Z,100950.84
2019-03-24T08:43:15.411Z,100943.88
2019-03-24T08:45:47.542Z,100938.59
2019-03-24T08:48:17.859Z,100937.82
2019-03-24T08:50:48.210Z,100939.52
2019-03-24T08:53:18.496Z,100941.09
2019-03-24T08:55:48.896Z,100936.03
2019-03-24T08:58:19.200Z,100923.09
2019-03-24T09:00:49.580Z,100913.42
2019-03-24T09:03:19.896Z,100911.14
2019-03-24T09:05:50.246Z,100898.72
2019-03-24T09:08:20.583Z,100896.06
2019-03-24T09:10:51.021Z,100894.28
2019-03-24T09:13:21.352Z,100899.61
2019-03-24T09:15:51.708Z,100885.23
2019-03-24T09:18:22.042Z,100887.71
2019-03-24T09:20:52.444Z,100902.38
2019-03-24T09:23:22.757Z,100899.55
2019-03-24T09:25:53.168Z,100900.05
2019-03-24T09:28:23.500Z,100896.42
2019-03-24T09:30:53.863Z,100901.81
2019-03-24T09:33:24.198Z,100900.14
2019-03-24T09:35:54.541Z,100896.58
2019-03-24T09:38:24.874Z,100898.45
2019-03-24T09:40:55.214Z,100897.47
2019-03-24T09:43:25.552Z,100899.28
2019-03-24T09:45:57.581Z,100893.86
2019-03-24T09:48:27.890Z,100893.98
2019-03-24T09:50:58.233Z,100893.41
2019-03-24T09:53:28.514Z,100884.61
2019-03-24T09:55:58.872Z,100884.02
2019-03-24T09:58:29.151Z,100888.52
2019-03-24T10:00:59.478Z,100879.56
2019-03-24T10:03:29.799Z,100876.94
2019-03-24T10:06:00.146Z,100872.75
2019-03-24T10:08:30.553Z,100876.80
2019-03-24T10:11:00.863Z,100874.63
2019-03-24T10:13:31.088Z,100865.47
2019-03-24T10:16:01.565Z,100864.45
2019-03-24T10:18:31.995Z,100857.10
2019-03-24T10:21:02.344Z,100864.27
2019-03-24T10:23:32.743Z,100858.05
2019-03-24T10:26:03.133Z,100851.18
2019-03-24T10:28:33.471Z,100854.55
2019-03-24T10:31:03.820Z,100854.02
2019-03-24T10:33:34.166Z,100854.16
2019-03-24T10:36:04.584Z,100848.31
2019-03-24T10:38:34.914Z,100844.73
2019-03-24T10:41:05.290Z,100834.42
2019-03-24T10:43:35.775Z,100830.84
2019-03-24T10:46:07.433Z,100834.85
2019-03-24T10:48:37.773Z,100822.94
2019-03-24T10:51:08.178Z,100828.87
2019-03-24T10:53:38.535Z,100821.91
2019-03-24T10:56:08.937Z,100813.52
2019-03-24T10:58:39.291Z,100811.92
2019-03-24T11:01:09.670Z,100803.41
2019-03-24T11:03:39.985Z,100809.81
2019-03-24T11:06:10.468Z,100816.19
2019-03-24T11:08:40.898Z,100807.78
2019-03-24T11:11:11.338Z,100809.14
2019-03-24T11:13:41.790Z,100796.60
2019-03-24T11:16:12.252Z,100798.34
2019-03-24T11:18:42.670Z,100790.52
2019-03-24T11:21:13.046Z,100790.33
2019-03-24T11:23:43.446Z,100781.12
2019-03-24T11:26:13.914Z,100781.12
2019-03-24T11:28:44.210Z,100779.23
2019-03-24T11:31:14.696Z,100776.61
2019-03-24T11:33:45.105Z,100784.47
2019-03-24T11:36:15.506Z,100773.32
2019-03-24T11:38:45.803Z,100780.80
2019-03-24T11:41:16.291Z,100782.28
2019-03-24T11:43:46.651Z,100772.13
2019-03-24T11:46:18.161Z,100771.86
2019-03-24T11:48:48.646Z,100773.48
2019-03-24T11:51:19.109Z,100768.67
2019-03-24T11:53:49.418Z,100767.14
2019-03-24T11:56:19.866Z,100768.86
2019-03-24T11:58:50.245Z,100766.20
2019-03-24T12:01:20.777Z,100764.03
2019-03-24T12:03:51.062Z,100767.84
2019-03-24T12:06:21.410Z,100762.84
2019-03-24T12:08:51.765Z,100764.84
2019-03-24T12:11:22.216Z,100766.50
2019-03-24T12:13:52.537Z,100763.36
2019-03-24T12:16:24.323Z,100755.58
2019-03-24T12:18:54.712Z,100753.10
2019-03-24T12:21:25.184Z,100748.97
2019-03-24T12:23:55.628Z,100743.35
2019-03-24T12:26:26.148Z,100743.36
2019-03-24T12:28:56.590Z,100742.33
2019-03-24T12:31:27.078Z,100732.80
2019-03-24T12:33:57.473Z,100728.38
2019-03-24T12:36:27.923Z,100729.76
2019-03-24T12:38:58.449Z,100723.16
2019-03-24T12:41:28.895Z,100719.34
2019-03-24T12:43:59.329Z,100725.31
2019-03-24T12:46:30.751Z,100732.33
2019-03-24T12:49:01.258Z,100720.41
2019-03-24T12:51:31.724Z,100719.45
2019-03-24T12:54:02.302Z,100712.17
2019-03-24T12:56:33.094Z,100714.17
2019-03-24T12:59:03.408Z,100717.52
2019-03-24T13:01:33.931Z,100713.77
2019-03-24T13:04:04.336Z,100718.37
2019-03-24T13:06:34.801Z,100718.87
2019-03-24T13:09:07.434Z,100726.31
2019-03-24T13:11:37.806Z,100729.28
2019-03-24T13:14:08.126Z,100735.86
2019-03-24T13:16:38.547Z,100744.96
2019-03-24T13:19:08.985Z,100741.34
2019-03-24T13:21:40.618Z,100741.88
2019-03-24T13:24:11.073Z,100727.77
2019-03-24T13:26:41.719Z,100736.86
2019-03-24T13:29:12.558Z,100724.51
2019-03-24T13:31:42.956Z,100728.78
2019-03-24T13:34:13.384Z,100719.02
2019-03-24T13:36:43.848Z,100719.63
2019-03-24T13:39:14.284Z,100720.66
2019-03-24T13:41:44.768Z,100724.92
2019-03-24T13:44:15.244Z,100721.59
2019-03-24T13:46:46.838Z,100714.67
2019-03-24T13:49:20.078Z,100711.15
2019-03-24T13:51:50.577Z,100704.36
2019-03-24T13:54:21.023Z,100701.53
2019-03-24T13:56:51.534Z,100697.16
2019-03-24T13:59:21.959Z,100698.41
2019-03-24T14:01:52.408Z,100699.88
2019-03-24T14:04:22.843Z,100698.72
2019-03-24T14:06:53.278Z,100701.35
2019-03-24T14:09:23.694Z,100698.31
2019-03-24T14:11:54.057Z,100702.91
2019-03-24T14:14:24.463Z,100695.06
2019-03-24T14:16:54.963Z,100698.16
2019-03-24T14:19:25.406Z,100698.16
2019-03-24T14:21:57.011Z,100693.97
2019-03-24T14:24:30.318Z,100692.35
2019-03-24T14:27:05.208Z,100695.61
2019-03-24T14:29:36.268Z,100689.59
2019-03-24T14:32:06.752Z,100690.73
2019-03-24T14:34:37.152Z,100695.05
2019-03-24T14:37:07.915Z,100695.80
2019-03-24T14:39:38.314Z,100686.51
2019-03-24T14:42:08.780Z,100686.75
2019-03-24T14:44:39.199Z,100685.03
2019-03-24T14:47:09.913Z,100678.16
2019-03-24T14:49:40.343Z,100681.00
2019-03-24T14:52:10.760Z,100669.13
2019-03-24T14:54:41.164Z,100674.55
2019-03-24T14:57:11.680Z,100669.82
2019-03-24T14:59:42.121Z,100668.41
2019-03-24T15:02:12.581Z,100666.36
2019-03-24T15:04:43.016Z,100661.69
2019-03-24T15:07:13.471Z,100655.53
2019-03-24T15:09:43.914Z,100656.16
2019-03-24T15:12:14.392Z,100662.11
2019-03-24T15:14:44.810Z,100652.02
2019-03-24T15:17:15.274Z,100651.77
2019-03-24T15:19:45.678Z,100653.82
2019-03-24T15:22:16.156Z,100649.03
2019-03-24T15:24:46.594Z,100650.41
2019-03-24T15:27:17.135Z,100644.78
2019-03-24T15:29:47.643Z,100647.17
2019-03-24T15:32:18.134Z,100648.56
2019-03-24T15:34:48.554Z,100647.89
2019-03-24T15:37:19.088Z,100648.78
2019-03-24T15:39:49.521Z,100645.28
2019-03-24T15:42:20.019Z,100647.27
2019-03-24T15:44:50.589Z,100643.58
2019-03-24T15:47:22.235Z,100640.27
2019-03-24T15:49:52.683Z,100629.99
2019-03-24T15:52:23.140Z,100632.93
2019-03-24T15:54:53.587Z,100640.50
2019-03-24T15:57:24.148Z,100645.36
2019-03-24T15:59:54.638Z,100629.34
2019-03-24T16:02:25.211Z,100636.55
2019-03-24T16:04:55.655Z,100639.23
2019-03-24T16:07:26.164Z,100632.20
2019-03-24T16:09:56.666Z,100633.20
2019-03-24T16:12:27.178Z,100628.41
2019-03-24T16:14:57.579Z,100631.81
2019-03-24T16:17:28.085Z,100629.56
2019-03-24T16:19:59.955Z,100628.93
2019-03-24T16:22:30.424Z,100631.22
2019-03-24T16:25:00.924Z,100628.05
2019-03-24T16:27:31.538Z,100630.00
2019-03-24T16:30:01.990Z,100632.94
2019-03-24T16:32:33.001Z,100629.80
2019-03-24T16:35:03.433Z,100631.16
2019-03-24T16:37:34.334Z,100628.88
2019-03-24T16:40:11.277Z,100631.34
2019-03-24T16:43:03.890Z,100625.40
2019-03-24T16:45:39.992Z,100622.12
2019-03-24T16:48:36.724Z,100627.12
2019-03-24T16:51:03.254Z,100626.02
2019-03-24T16:53:33.885Z,100621.70
2019-03-24T16:56:04.330Z,100622.48
2019-03-24T16:58:34.803Z,100632.00
2019-03-24T17:01:05.264Z,100626.87
2019-03-24T17:03:35.766Z,100637.31
2019-03-24T17:06:06.282Z,100630.07
2019-03-24T17:08:36.801Z,100626.53
2019-03-24T17:11:07.233Z,100628.61
2019-03-24T17:13:37.727Z,100613.02
2019-03-24T17:16:08.304Z,100618.62
2019-03-24T17:18:38.856Z,100620.31
2019-03-24T17:21:09.345Z,100618.95
2019-03-24T17:23:39.823Z,100618.38
2019-03-24T17:26:10.256Z,100614.03
2019-03-24T17:28:40.800Z,100622.06
2019-03-24T17:31:11.227Z,100621.34
2019-03-24T17:33:41.707Z,100617.23
2019-03-24T17:36:12.139Z,100613.37
2019-03-24T17:38:42.611Z,100612.93
2019-03-24T17:41:13.075Z,100610.42
2019-03-24T17:43:43.541Z,100619.12
2019-03-24T17:46:14.005Z,100613.13
2019-03-24T17:48:46.411Z,100617.38
2019-03-24T17:51:16.845Z,100615.91
2019-03-24T17:53:47.365Z,100609.97
2019-03-24T17:56:17.822Z,100612.34
2019-03-24T17:58:48.324Z,100610.99
2019-03-24T18:01:18.791Z,100616.30
2019-03-24T18:03:49.314Z,100619.01
2019-03-24T18:06:19.735Z,100619.25
2019-03-24T18:08:50.242Z,100616.87
2019-03-24T18:11:20.704Z,100619.39
2019-03-24T18:13:51.181Z,100616.84
2019-03-24T18:16:21.951Z,100607.75
2019-03-24T18:18:52.437Z,100605.58
2019-03-24T18:21:23.057Z,100615.11
2019-03-24T18:23:53.543Z,100614.28
2019-03-24T18:26:25.909Z,100619.31
2019-03-24T18:28:56.199Z,100617.52
2019-03-24T18:31:26.655Z,100625.05
2019-03-24T18:33:57.147Z,100619.64
2019-03-24T18:36:27.579Z,100612.54
2019-03-24T18:38:58.023Z,100612.97
2019-03-24T18:41:28.481Z,100609.77
2019-03-24T18:43:58.944Z,100601.08
2019-03-24T18:46:29.371Z,100609.78
2019-03-24T18:49:00.828Z,100599.84
2019-03-24T18:51:31.263Z,100600.80
2019-03-24T18:54:01.735Z,100606.30
2019-03-24T18:56:32.155Z,100609.39
2019-03-24T18:59:02.683Z,100599.73
2019-03-24T19:01:33.156Z,100596.83
2019-03-24T19:04:03.701Z,100604.51
2019-03-24T19:06:34.120Z,100604.42
2019-03-24T19:09:07.756Z,100600.11
2019-03-24T19:11:38.211Z,100596.88
2019-03-24T19:14:08.729Z,100600.95
2019-03-24T19:16:39.181Z,100610.50
2019-03-24T19:19:09.640Z,100600.36
2019-03-24T19:21:40.096Z,100603.16
2019-03-24T19:24:10.578Z,100605.20
2019-03-24T19:26:41.028Z,100600.25
2019-03-24T19:29:11.535Z,100592.23
2019-03-24T19:31:42.185Z,100585.84
2019-03-24T19:34:12.624Z,100589.91
2019-03-24T19:36:43.401Z,100589.13
2019-03-24T19:39:13.875Z,100585.63
2019-03-24T19:41:44.330Z,100580.70
2019-03-24T19:44:14.825Z,100584.77
2019-03-24T19:46:45.246Z,100587.48
2019-03-24T19:49:16.692Z,100587.52
2019-03-24T19:51:47.134Z,100585.92
2019-03-24T19:54:17.603Z,100586.86
2019-03-24T19:56:48.041Z,100589.52
2019-03-24T19:59:18.523Z,100588.36
2019-03-24T20:01:48.924Z,100583.94
2019-03-24T20:04:19.412Z,100595.95
2019-03-24T20:06:49.842Z,100596.91
2019-03-24T20:09:20.299Z,100595.89
2019-03-24T20:11:50.905Z,100594.53
2019-03-24T20:14:23.905Z,100589.89
2019-03-24T20:16:54.924Z,100589.06
2019-03-24T20:19:25.408Z,100592.11
2019-03-24T20:21:55.835Z,100589.53
2019-03-24T20:24:26.275Z,100590.30
2019-03-24T20:26:56.684Z,100587.61
2019-03-24T20:29:27.146Z,100590.84
2019-03-24T20:31:57.506Z,100594.29
2019-03-24T20:34:27.945Z,100588.77
2019-03-24T20:36:58.311Z,100588.45
2019-03-24T20:39:28.905Z,100583.13
2019-03-24T20:41:59.336Z,100592.17
2019-03-24T20:44:29.886Z,100582.27
2019-03-24T20:47:00.339Z,100588.16
2019-03-24T20:49:30.933Z,100585.31
2019-03-24T20:52:01.341Z,100586.05
2019-03-24T20:54:31.840Z,100594.17
2019-03-24T20:57:02.236Z,100595.72
2019-03-24T20:59:32.719Z,100591.27
2019-03-24T21:02:03.164Z,100591.22
2019-03-24T21:04:33.662Z,100594.52
2019-03-24T21:07:04.062Z,100590.02
2019-03-24T21:09:34.550Z,100589.23
2019-03-24T21:12:05.061Z,100590.39
2019-03-24T21:14:35.534Z,100585.64
2019-03-24T21:17:06.052Z,100581.25
2019-03-24T21:19:36.502Z,100587.44
2019-03-24T21:22:06.943Z,100583.27
2019-03-24T21:24:37.437Z,100581.77
2019-03-24T21:27:07.978Z,100585.83
2019-03-24T21:29:38.471Z,100590.53
2019-03-24T21:32:08.912Z,100587.35
2019-03-24T21:34:39.393Z,100579.20
2019-03-24T21:37:09.831Z,100586.34
2019-03-24T21:39:40.283Z,100590.72
2019-03-24T21:42:10.728Z,100588.41
2019-03-24T21:44:41.192Z,100590.05
2019-03-24T21:47:11.625Z,100587.55
2019-03-24T21:49:43.031Z,100587.73
2019-03-24T21:52:13.467Z,100586.84
2019-03-24T21:54:43.932Z,100577.88
2019-03-24T21:57:15.828Z,100576.25
2019-03-24T21:59:46.351Z,100575.55
2019-03-24T22:02:16.861Z,100577.27
2019-03-24T22:04:47.442Z,100565.22
2019-03-24T22:07:17.852Z,100563.19
2019-03-24T22:09:48.415Z,100553.47
2019-03-24T22:12:24.192Z,100546.87
2019-03-24T22:14:54.657Z,100552.01
2019-03-24T22:17:25.052Z,100554.75
2019-03-24T22:19:55.573Z,100553.85
2019-03-24T22:22:26.056Z,100564.80
2019-03-24T22:24:56.543Z,100569.03
2019-03-24T22:27:27.028Z,100561.30
2019-03-24T22:29:57.565Z,100565.98
2019-03-24T22:32:28.013Z,100563.50
2019-03-24T22:34:58.478Z,100568.02
2019-03-24T22:37:28.871Z,100571.61
2019-03-24T22:39:59.345Z,100560.45
2019-03-24T22:42:29.819Z,100569.00
2019-03-24T22:45:00.327Z,100573.23
2019-03-24T22:47:30.760Z,100572.83
2019-03-24T22:50:02.440Z,100566.81
2019-03-24T22:52:32.843Z,100571.30
2019-03-24T22:55:04.234Z,100564.17
2019-03-24T22:57:35.676Z,100567.27
2019-03-24T23:00:15.548Z,100570.45
2019-03-24T23:02:46.038Z,100576.58
2019-03-24T23:05:16.519Z,100575.77
2019-03-24T23:07:46.917Z,100571.80
2019-03-24T23:10:17.352Z,100578.20
2019-03-24T23:12:47.770Z,100576.23
2019-03-24T23:15:18.223Z,100578.01
2019-03-24T23:17:48.727Z,100570.37
2019-03-24T23:20:19.166Z,100569.22
2019-03-24T23:22:49.589Z,100571.45
2019-03-24T23:25:20.052Z,100564.18
2019-03-24T23:27:50.462Z,100562.77
2019-03-24T23:30:21.060Z,100565.27
2019-03-24T23:32:51.510Z,100555.35
2019-03-24T23:35:22.042Z,100551.02
2019-03-24T23:37:52.478Z,100551.41
2019-03-24T23:40:22.951Z,100555.71
2019-03-24T23:42:53.378Z,100551.33
2019-03-24T23:45:23.833Z,100561.38
2019-03-24T23:47:54.298Z,100554.83
2019-03-24T23:50:24.888Z,100558.05
2019-03-24T23:52:56.156Z,100570.81
2019-03-24T23:55:26.756Z,100563.53
2019-03-24T23:57:57.188Z,100561.27
